sensor_id;sensor_type;location;lat;lon;timestamp;temperature;humidity
10390;DHT22;5241;47.830;12.972;2023-04-24T00:01:24;11.20;99.90
10390;DHT22;5241;47.830;12.972;2023-04-24T00:03:49;11.20;99.90
10390;DHT22;5241;47.830;12.972;2023-04-24T00:06:15;11.10;99.90
10390;DHT22;5241;47.830;12.972;2023-04-24T00:08:42;11.10;99.90
10390;DHT22;5241;47.830;12.972;2023-04-24T00:11:08;11.10;99.90
10390;DHT22;5241;47.830;12.972;2023-04-24T00:13:35;11.00;99.90
10390;DHT22;5241;47.830;12.972;2023-04-24T00:16:00;10.90;99.90
10390;DHT22;5241;47.830;12.972;2023-04-24T00:18:26;10.90;99.90
10390;DHT22;5241;47.830;12.972;2023-04-24T00:20:52;10.80;99.90
10390;DHT22;5241;47.830;12.972;2023-04-24T00:23:17;10.70;99.90
10390;DHT22;5241;47.830;12.972;2023-04-24T00:25:43;10.60;99.90
10390;DHT22;5241;47.830;12.972;2023-04-24T00:28:08;10.60;99.90
10390;DHT22;5241;47.830;12.972;2023-04-24T00:30:34;10.50;99.90
10390;DHT22;5241;47.830;12.972;2023-04-24T00:33:00;10.50;99.90
10390;DHT22;5241;47.830;12.972;2023-04-24T00:35:25;10.40;99.90
10390;DHT22;5241;47.830;12.972;2023-04-24T00:37:51;10.50;99.90
10390;DHT22;5241;47.830;12.972;2023-04-24T00:40:16;10.40;99.90
10390;DHT22;5241;47.830;12.972;2023-04-24T00:42:43;10.40;99.90
10390;DHT22;5241;47.830;12.972;2023-04-24T00:45:09;10.30;99.90
10390;DHT22;5241;47.830;12.972;2023-04-24T00:47:35;10.20;99.90
10390;DHT22;5241;47.830;12.972;2023-04-24T00:50:03;10.10;99.90
10390;DHT22;5241;47.830;12.972;2023-04-24T00:52:29;10.10;99.90
10390;DHT22;5241;47.830;12.972;2023-04-24T00:54:56;10.10;99.90
10390;DHT22;5241;47.830;12.972;2023-04-24T00:57:22;10.10;99.90
10390;DHT22;5241;47.830;12.972;2023-04-24T00:59:48;10.10;99.90
10390;DHT22;5241;47.830;12.972;2023-04-24T01:02:14;10.10;99.90
10390;DHT22;5241;47.830;12.972;2023-04-24T01:04:41;10.00;99.90
10390;DHT22;5241;47.830;12.972;2023-04-24T01:07:07;10.00;99.90
10390;DHT22;5241;47.830;12.972;2023-04-24T01:09:42;10.00;99.90
10390;DHT22;5241;47.830;12.972;2023-04-24T01:12:12;10.00;99.90
10390;DHT22;5241;47.830;12.972;2023-04-24T01:14:38;10.00;99.90
10390;DHT22;5241;47.830;12.972;2023-04-24T01:17:03;9.90;99.90
10390;DHT22;5241;47.830;12.972;2023-04-24T01:19:29;9.80;99.90
10390;DHT22;5241;47.830;12.972;2023-04-24T01:21:58;9.90;99.90
10390;DHT22;5241;47.830;12.972;2023-04-24T01:24:24;9.90;99.90
10390;DHT22;5241;47.830;12.972;2023-04-24T01:26:49;9.90;99.90
10390;DHT22;5241;47.830;12.972;2023-04-24T01:29:15;9.90;99.90
10390;DHT22;5241;47.830;12.972;2023-04-24T01:31:41;9.90;99.90
10390;DHT22;5241;47.830;12.972;2023-04-24T01:34:06;9.90;99.90
10390;DHT22;5241;47.830;12.972;2023-04-24T01:36:35;9.90;99.90
10390;DHT22;5241;47.830;12.972;2023-04-24T01:39:00;9.90;99.90
10390;DHT22;5241;47.830;12.972;2023-04-24T01:41:26;10.00;99.90
10390;DHT22;5241;47.830;12.972;2023-04-24T01:43:52;10.00;99.90
10390;DHT22;5241;47.830;12.972;2023-04-24T01:46:17;10.10;99.90
10390;DHT22;5241;47.830;12.972;2023-04-24T01:48:45;10.10;99.90
10390;DHT22;5241;47.830;12.972;2023-04-24T01:51:11;10.20;99.90
10390;DHT22;5241;47.830;12.972;2023-04-24T01:53:36;10.10;99.90
10390;DHT22;5241;47.830;12.972;2023-04-24T01:56:02;10.10;99.90
10390;DHT22;5241;47.830;12.972;2023-04-24T01:58:28;10.10;99.90
10390;DHT22;5241;47.830;12.972;2023-04-24T02:00:56;10.00;99.90
10390;DHT22;5241;47.830;12.972;2023-04-24T02:03:22;10.00;99.90
10390;DHT22;5241;47.830;12.972;2023-04-24T02:05:47;9.90;99.90
10390;DHT22;5241;47.830;12.972;2023-04-24T02:08:13;9.90;99.90
10390;DHT22;5241;47.830;12.972;2023-04-24T02:10:38;9.90;99.90
10390;DHT22;5241;47.830;12.972;2023-04-24T02:13:04;10.00;99.90
10390;DHT22;5241;47.830;12.972;2023-04-24T02:15:30;9.90;99.90
10390;DHT22;5241;47.830;12.972;2023-04-24T02:17:55;9.90;99.90
10390;DHT22;5241;47.830;12.972;2023-04-24T02:20:21;9.90;99.90
10390;DHT22;5241;47.830;12.972;2023-04-24T02:22:46;9.90;99.90
10390;DHT22;5241;47.830;12.972;2023-04-24T02:25:12;9.90;99.90
10390;DHT22;5241;47.830;12.972;2023-04-24T02:27:38;9.90;99.90
10390;DHT22;5241;47.830;12.972;2023-04-24T02:30:03;9.90;99.90
10390;DHT22;5241;47.830;12.972;2023-04-24T02:32:29;9.90;99.90
10390;DHT22;5241;47.830;12.972;2023-04-24T02:34:56;9.90;99.90
10390;DHT22;5241;47.830;12.972;2023-04-24T02:37:21;9.90;99.90
10390;DHT22;5241;47.830;12.972;2023-04-24T02:39:47;9.90;99.90
10390;DHT22;5241;47.830;12.972;2023-04-24T02:42:12;9.90;99.90
10390;DHT22;5241;47.830;12.972;2023-04-24T02:44:39;9.90;99.90
10390;DHT22;5241;47.830;12.972;2023-04-24T02:47:04;9.90;99.90
10390;DHT22;5241;47.830;12.972;2023-04-24T02:49:30;9.90;99.90
10390;DHT22;5241;47.830;12.972;2023-04-24T02:51:55;9.90;99.90
10390;DHT22;5241;47.830;12.972;2023-04-24T02:54:21;9.80;99.90
10390;DHT22;5241;47.830;12.972;2023-04-24T02:56:46;9.80;99.90
10390;DHT22;5241;47.830;12.972;2023-04-24T02:59:12;9.80;99.90
10390;DHT22;5241;47.830;12.972;2023-04-24T03:01:37;9.90;99.90
10390;DHT22;5241;47.830;12.972;2023-04-24T03:04:03;9.90;99.90
10390;DHT22;5241;47.830;12.972;2023-04-24T03:06:29;10.00;99.90
10390;DHT22;5241;47.830;12.972;2023-04-24T03:08:56;10.00;99.90
10390;DHT22;5241;47.830;12.972;2023-04-24T03:11:22;10.00;99.90
10390;DHT22;5241;47.830;12.972;2023-04-24T03:13:47;10.00;99.90
10390;DHT22;5241;47.830;12.972;2023-04-24T03:16:13;10.00;99.90
10390;DHT22;5241;47.830;12.972;2023-04-24T03:18:38;9.90;99.90
10390;DHT22;5241;47.830;12.972;2023-04-24T03:21:04;9.90;99.90
10390;DHT22;5241;47.830;12.972;2023-04-24T03:23:29;9.90;99.90
10390;DHT22;5241;47.830;12.972;2023-04-24T03:25:55;9.90;99.90
10390;DHT22;5241;47.830;12.972;2023-04-24T03:28:20;10.00;99.90
10390;DHT22;5241;47.830;12.972;2023-04-24T03:30:46;10.00;99.90
10390;DHT22;5241;47.830;12.972;2023-04-24T03:33:12;10.00;99.90
10390;DHT22;5241;47.830;12.972;2023-04-24T03:35:37;10.00;99.90
10390;DHT22;5241;47.830;12.972;2023-04-24T03:38:03;10.00;99.90
10390;DHT22;5241;47.830;12.972;2023-04-24T03:40:31;10.00;99.90
10390;DHT22;5241;47.830;12.972;2023-04-24T03:42:58;9.90;99.90
10390;DHT22;5241;47.830;12.972;2023-04-24T03:45:24;9.80;99.90
10390;DHT22;5241;47.830;12.972;2023-04-24T03:47:50;9.80;99.90
10390;DHT22;5241;47.830;12.972;2023-04-24T03:50:15;9.90;99.90
10390;DHT22;5241;47.830;12.972;2023-04-24T03:52:41;9.90;99.90
10390;DHT22;5241;47.830;12.972;2023-04-24T03:55:07;9.90;99.90
10390;DHT22;5241;47.830;12.972;2023-04-24T03:57:32;9.80;99.90
10390;DHT22;5241;47.830;12.972;2023-04-24T03:59:58;9.80;99.90
10390;DHT22;5241;47.830;12.972;2023-04-24T04:02:23;9.80;99.90
10390;DHT22;5241;47.830;12.972;2023-04-24T04:04:49;9.80;99.90
10390;DHT22;5241;47.830;12.972;2023-04-24T04:07:15;9.70;99.90
10390;DHT22;5241;47.830;12.972;2023-04-24T04:09:40;9.60;99.90
10390;DHT22;5241;47.830;12.972;2023-04-24T04:12:06;9.60;99.90
10390;DHT22;5241;47.830;12.972;2023-04-24T04:14:31;9.60;99.90
10390;DHT22;5241;47.830;12.972;2023-04-24T04:16:57;9.70;99.90
10390;DHT22;5241;47.830;12.972;2023-04-24T04:19:22;9.60;99.90
10390;DHT22;5241;47.830;12.972;2023-04-24T04:21:48;9.60;99.90
10390;DHT22;5241;47.830;12.972;2023-04-24T04:24:18;9.60;99.90
10390;DHT22;5241;47.830;12.972;2023-04-24T04:26:44;9.60;99.90
10390;DHT22;5241;47.830;12.972;2023-04-24T04:29:13;9.60;99.90
10390;DHT22;5241;47.830;12.972;2023-04-24T04:31:38;9.60;99.90
10390;DHT22;5241;47.830;12.972;2023-04-24T04:34:04;9.60;99.90
10390;DHT22;5241;47.830;12.972;2023-04-24T04:36:30;9.60;99.90
10390;DHT22;5241;47.830;12.972;2023-04-24T04:38:56;9.60;99.90
10390;DHT22;5241;47.830;12.972;2023-04-24T04:41:22;9.60;99.90
10390;DHT22;5241;47.830;12.972;2023-04-24T04:43:47;9.60;99.90
10390;DHT22;5241;47.830;12.972;2023-04-24T04:46:13;9.60;99.90
10390;DHT22;5241;47.830;12.972;2023-04-24T04:48:38;9.50;99.90
10390;DHT22;5241;47.830;12.972;2023-04-24T04:51:05;9.50;99.90
10390;DHT22;5241;47.830;12.972;2023-04-24T04:53:30;9.60;99.90
10390;DHT22;5241;47.830;12.972;2023-04-24T04:55:56;9.60;99.90
10390;DHT22;5241;47.830;12.972;2023-04-24T04:58:22;9.50;99.90
10390;DHT22;5241;47.830;12.972;2023-04-24T05:00:47;9.60;99.90
10390;DHT22;5241;47.830;12.972;2023-04-24T05:03:13;9.60;99.90
10390;DHT22;5241;47.830;12.972;2023-04-24T05:05:39;9.50;99.90
10390;DHT22;5241;47.830;12.972;2023-04-24T05:08:07;9.50;99.90
10390;DHT22;5241;47.830;12.972;2023-04-24T05:10:33;9.50;99.90
10390;DHT22;5241;47.830;12.972;2023-04-24T05:12:58;9.50;99.90
10390;DHT22;5241;47.830;12.972;2023-04-24T05:15:24;9.60;99.90
10390;DHT22;5241;47.830;12.972;2023-04-24T05:17:49;9.50;99.90
10390;DHT22;5241;47.830;12.972;2023-04-24T05:20:15;9.60;99.90
10390;DHT22;5241;47.830;12.972;2023-04-24T05:22:40;9.60;99.90
10390;DHT22;5241;47.830;12.972;2023-04-24T05:25:06;9.70;99.90
10390;DHT22;5241;47.830;12.972;2023-04-24T05:27:32;9.80;99.90
10390;DHT22;5241;47.830;12.972;2023-04-24T05:29:57;9.70;99.90
10390;DHT22;5241;47.830;12.972;2023-04-24T05:32:23;9.80;99.90
10390;DHT22;5241;47.830;12.972;2023-04-24T05:34:48;9.70;99.90
10390;DHT22;5241;47.830;12.972;2023-04-24T05:37:14;9.80;99.90
10390;DHT22;5241;47.830;12.972;2023-04-24T05:39:39;9.80;99.90
10390;DHT22;5241;47.830;12.972;2023-04-24T05:42:06;9.90;99.90
10390;DHT22;5241;47.830;12.972;2023-04-24T05:44:32;9.90;99.90
10390;DHT22;5241;47.830;12.972;2023-04-24T05:46:58;10.00;99.90
10390;DHT22;5241;47.830;12.972;2023-04-24T05:49:23;10.00;99.90
10390;DHT22;5241;47.830;12.972;2023-04-24T05:51:49;10.00;99.90
10390;DHT22;5241;47.830;12.972;2023-04-24T05:54:14;10.00;99.90
10390;DHT22;5241;47.830;12.972;2023-04-24T05:56:40;10.10;99.90
10390;DHT22;5241;47.830;12.972;2023-04-24T05:59:06;10.20;99.90
10390;DHT22;5241;47.830;12.972;2023-04-24T06:01:31;10.20;99.90
10390;DHT22;5241;47.830;12.972;2023-04-24T06:03:57;10.30;99.90
10390;DHT22;5241;47.830;12.972;2023-04-24T06:06:26;10.30;99.90
10390;DHT22;5241;47.830;12.972;2023-04-24T06:08:52;10.40;99.90
10390;DHT22;5241;47.830;12.972;2023-04-24T06:11:18;10.50;99.90
10390;DHT22;5241;47.830;12.972;2023-04-24T06:13:43;10.50;99.90
10390;DHT22;5241;47.830;12.972;2023-04-24T06:16:09;10.60;99.90
10390;DHT22;5241;47.830;12.972;2023-04-24T06:18:35;10.50;99.90
10390;DHT22;5241;47.830;12.972;2023-04-24T06:21:00;10.50;99.90
10390;DHT22;5241;47.830;12.972;2023-04-24T06:23:26;10.50;99.90
10390;DHT22;5241;47.830;12.972;2023-04-24T06:25:51;10.50;99.90
10390;DHT22;5241;47.830;12.972;2023-04-24T06:28:17;10.50;99.90
10390;DHT22;5241;47.830;12.972;2023-04-24T06:30:42;10.50;99.90
10390;DHT22;5241;47.830;12.972;2023-04-24T06:33:08;10.50;99.90
10390;DHT22;5241;47.830;12.972;2023-04-24T06:35:34;10.50;99.90
10390;DHT22;5241;47.830;12.972;2023-04-24T06:38:00;10.60;99.90
10390;DHT22;5241;47.830;12.972;2023-04-24T06:40:25;10.70;99.90
10390;DHT22;5241;47.830;12.972;2023-04-24T06:42:51;10.80;99.90
10390;DHT22;5241;47.830;12.972;2023-04-24T06:45:17;10.70;99.90
10390;DHT22;5241;47.830;12.972;2023-04-24T06:47:42;10.70;99.90
10390;DHT22;5241;47.830;12.972;2023-04-24T06:50:08;10.70;99.90
10390;DHT22;5241;47.830;12.972;2023-04-24T06:52:34;10.70;99.90
10390;DHT22;5241;47.830;12.972;2023-04-24T06:55:03;10.70;99.90
10390;DHT22;5241;47.830;12.972;2023-04-24T06:57:30;10.60;99.90
10390;DHT22;5241;47.830;12.972;2023-04-24T06:59:56;10.70;99.90
10390;DHT22;5241;47.830;12.972;2023-04-24T07:02:21;10.70;99.90
10390;DHT22;5241;47.830;12.972;2023-04-24T07:04:47;10.70;99.90
10390;DHT22;5241;47.830;12.972;2023-04-24T07:07:13;10.70;99.90
10390;DHT22;5241;47.830;12.972;2023-04-24T07:09:42;10.80;99.90
10390;DHT22;5241;47.830;12.972;2023-04-24T07:12:10;10.80;99.90
10390;DHT22;5241;47.830;12.972;2023-04-24T07:14:37;10.70;99.90
10390;DHT22;5241;47.830;12.972;2023-04-24T07:17:04;10.80;99.90
10390;DHT22;5241;47.830;12.972;2023-04-24T07:19:30;10.80;99.90
10390;DHT22;5241;47.830;12.972;2023-04-24T07:21:55;10.80;99.90
10390;DHT22;5241;47.830;12.972;2023-04-24T07:24:24;10.80;99.90
10390;DHT22;5241;47.830;12.972;2023-04-24T07:26:51;10.80;99.90
10390;DHT22;5241;47.830;12.972;2023-04-24T07:29:17;10.70;99.90
10390;DHT22;5241;47.830;12.972;2023-04-24T07:31:42;10.70;99.90
10390;DHT22;5241;47.830;12.972;2023-04-24T07:34:08;10.80;99.90
10390;DHT22;5241;47.830;12.972;2023-04-24T07:36:34;10.80;99.90
10390;DHT22;5241;47.830;12.972;2023-04-24T07:38:59;10.80;99.90
10390;DHT22;5241;47.830;12.972;2023-04-24T07:41:25;10.70;99.90
10390;DHT22;5241;47.830;12.972;2023-04-24T07:43:50;10.80;99.90
10390;DHT22;5241;47.830;12.972;2023-04-24T07:46:16;11.00;99.90
10390;DHT22;5241;47.830;12.972;2023-04-24T07:48:42;11.00;99.90
10390;DHT22;5241;47.830;12.972;2023-04-24T07:51:07;11.00;99.90
10390;DHT22;5241;47.830;12.972;2023-04-24T07:53:35;11.10;99.90
10390;DHT22;5241;47.830;12.972;2023-04-24T07:56:01;11.10;99.90
10390;DHT22;5241;47.830;12.972;2023-04-24T07:58:26;11.00;99.90
10390;DHT22;5241;47.830;12.972;2023-04-24T08:00:52;11.00;99.90
10390;DHT22;5241;47.830;12.972;2023-04-24T08:03:17;10.90;99.90
10390;DHT22;5241;47.830;12.972;2023-04-24T08:05:45;10.90;99.90
10390;DHT22;5241;47.830;12.972;2023-04-24T08:08:10;10.90;99.90
10390;DHT22;5241;47.830;12.972;2023-04-24T08:10:36;10.90;99.90
10390;DHT22;5241;47.830;12.972;2023-04-24T08:13:02;11.00;99.90
10390;DHT22;5241;47.830;12.972;2023-04-24T08:15:28;11.00;99.90
10390;DHT22;5241;47.830;12.972;2023-04-24T08:17:53;11.10;99.90
10390;DHT22;5241;47.830;12.972;2023-04-24T08:20:19;11.10;99.90
10390;DHT22;5241;47.830;12.972;2023-04-24T08:22:44;11.20;99.90
10390;DHT22;5241;47.830;12.972;2023-04-24T08:25:12;11.20;99.90
10390;DHT22;5241;47.830;12.972;2023-04-24T08:27:38;11.20;99.90
10390;DHT22;5241;47.830;12.972;2023-04-24T08:30:06;11.20;99.90
10390;DHT22;5241;47.830;12.972;2023-04-24T08:32:32;11.30;99.90
10390;DHT22;5241;47.830;12.972;2023-04-24T08:34:58;11.30;99.90
10390;DHT22;5241;47.830;12.972;2023-04-24T08:37:25;11.40;99.90
10390;DHT22;5241;47.830;12.972;2023-04-24T08:39:51;11.50;99.90
10390;DHT22;5241;47.830;12.972;2023-04-24T08:42:19;11.50;99.90
10390;DHT22;5241;47.830;12.972;2023-04-24T08:44:46;11.70;99.90
10390;DHT22;5241;47.830;12.972;2023-04-24T08:47:13;11.70;99.90
10390;DHT22;5241;47.830;12.972;2023-04-24T08:49:40;11.70;99.90
10390;DHT22;5241;47.830;12.972;2023-04-24T08:52:06;11.70;99.90
10390;DHT22;5241;47.830;12.972;2023-04-24T08:54:34;11.70;99.90
10390;DHT22;5241;47.830;12.972;2023-04-24T08:57:01;11.80;99.90
10390;DHT22;5241;47.830;12.972;2023-04-24T08:59:29;12.00;99.90
10390;DHT22;5241;47.830;12.972;2023-04-24T09:01:56;12.10;99.90
10390;DHT22;5241;47.830;12.972;2023-04-24T09:04:24;12.20;99.90
10390;DHT22;5241;47.830;12.972;2023-04-24T09:06:55;12.30;99.90
10390;DHT22;5241;47.830;12.972;2023-04-24T09:09:21;12.20;99.90
10390;DHT22;5241;47.830;12.972;2023-04-24T09:11:49;12.00;99.90
10390;DHT22;5241;47.830;12.972;2023-04-24T09:14:15;11.70;99.90
10390;DHT22;5241;47.830;12.972;2023-04-24T09:16:41;11.70;99.90
10390;DHT22;5241;47.830;12.972;2023-04-24T09:19:07;11.60;99.90
10390;DHT22;5241;47.830;12.972;2023-04-24T09:21:33;11.70;99.90
10390;DHT22;5241;47.830;12.972;2023-04-24T09:24:02;12.00;99.90
10390;DHT22;5241;47.830;12.972;2023-04-24T09:26:34;12.30;99.90
10390;DHT22;5241;47.830;12.972;2023-04-24T09:29:00;12.70;99.90
10390;DHT22;5241;47.830;12.972;2023-04-24T09:31:28;13.30;99.90
10390;DHT22;5241;47.830;12.972;2023-04-24T09:34:02;13.60;99.90
10390;DHT22;5241;47.830;12.972;2023-04-24T09:36:41;13.90;99.90
10390;DHT22;5241;47.830;12.972;2023-04-24T09:39:12;13.90;99.90
10390;DHT22;5241;47.830;12.972;2023-04-24T09:41:48;14.10;99.90
10390;DHT22;5241;47.830;12.972;2023-04-24T09:44:21;14.40;99.90
10390;DHT22;5241;47.830;12.972;2023-04-24T09:46:57;14.40;99.90
10390;DHT22;5241;47.830;12.972;2023-04-24T09:49:30;14.00;99.90
10390;DHT22;5241;47.830;12.972;2023-04-24T09:52:11;14.20;99.90
10390;DHT22;5241;47.830;12.972;2023-04-24T09:54:38;13.90;99.90
10390;DHT22;5241;47.830;12.972;2023-04-24T09:57:04;13.70;99.90
10390;DHT22;5241;47.830;12.972;2023-04-24T09:59:30;13.50;99.90
10390;DHT22;5241;47.830;12.972;2023-04-24T10:01:55;13.20;99.90
10390;DHT22;5241;47.830;12.972;2023-04-24T10:04:23;12.60;99.90
10390;DHT22;5241;47.830;12.972;2023-04-24T10:06:51;12.30;99.90
10390;DHT22;5241;47.830;12.972;2023-04-24T10:09:18;12.40;99.90
10390;DHT22;5241;47.830;12.972;2023-04-24T10:11:45;12.50;99.90
10390;DHT22;5241;47.830;12.972;2023-04-24T10:14:20;12.50;99.90
10390;DHT22;5241;47.830;12.972;2023-04-24T10:16:46;12.60;99.90
10390;DHT22;5241;47.830;12.972;2023-04-24T10:19:13;12.50;99.90
10390;DHT22;5241;47.830;12.972;2023-04-24T10:21:41;12.60;99.90
10390;DHT22;5241;47.830;12.972;2023-04-24T10:24:14;12.60;99.90
10390;DHT22;5241;47.830;12.972;2023-04-24T10:26:41;12.30;99.90
10390;DHT22;5241;47.830;12.972;2023-04-24T10:29:07;12.30;99.90
10390;DHT22;5241;47.830;12.972;2023-04-24T10:31:35;12.40;99.90
10390;DHT22;5241;47.830;12.972;2023-04-24T10:34:02;12.60;99.90
10390;DHT22;5241;47.830;12.972;2023-04-24T10:36:29;12.80;99.90
10390;DHT22;5241;47.830;12.972;2023-04-24T10:39:00;12.90;99.90
10390;DHT22;5241;47.830;12.972;2023-04-24T10:41:26;12.90;99.90
10390;DHT22;5241;47.830;12.972;2023-04-24T10:44:12;13.10;99.90
10390;DHT22;5241;47.830;12.972;2023-04-24T10:46:38;13.10;99.90
10390;DHT22;5241;47.830;12.972;2023-04-24T10:49:06;12.70;99.90
10390;DHT22;5241;47.830;12.972;2023-04-24T10:51:51;12.70;99.90
10390;DHT22;5241;47.830;12.972;2023-04-24T10:54:47;12.30;99.90
10390;DHT22;5241;47.830;12.972;2023-04-24T11:00:33;12.20;99.90
10390;DHT22;5241;47.830;12.972;2023-04-24T11:02:37;12.20;99.90
10390;DHT22;5241;47.830;12.972;2023-04-24T11:05:04;12.40;99.90
10390;DHT22;5241;47.830;12.972;2023-04-24T11:07:29;12.60;99.90
10390;DHT22;5241;47.830;12.972;2023-04-24T11:10:01;12.40;99.90
10390;DHT22;5241;47.830;12.972;2023-04-24T11:12:26;12.60;99.90
10390;DHT22;5241;47.830;12.972;2023-04-24T11:17:32;12.80;99.90
10390;DHT22;5241;47.830;12.972;2023-04-24T11:20:10;12.80;99.90
10390;DHT22;5241;47.830;12.972;2023-04-24T11:22:38;12.80;99.90
10390;DHT22;5241;47.830;12.972;2023-04-24T11:25:05;12.90;99.90
10390;DHT22;5241;47.830;12.972;2023-04-24T11:27:39;13.30;99.90
10390;DHT22;5241;47.830;12.972;2023-04-24T11:30:05;13.80;99.90
10390;DHT22;5241;47.830;12.972;2023-04-24T11:32:42;14.00;99.90
10390;DHT22;5241;47.830;12.972;2023-04-24T11:35:18;14.40;99.90
10390;DHT22;5241;47.830;12.972;2023-04-24T11:37:49;14.20;99.90
10390;DHT22;5241;47.830;12.972;2023-04-24T11:40:16;14.60;99.90
10390;DHT22;5241;47.830;12.972;2023-04-24T11:42:45;15.10;99.90
10390;DHT22;5241;47.830;12.972;2023-04-24T11:45:13;14.70;99.90
10390;DHT22;5241;47.830;12.972;2023-04-24T11:47:39;14.30;99.90
10390;DHT22;5241;47.830;12.972;2023-04-24T11:50:12;14.50;99.90
10390;DHT22;5241;47.830;12.972;2023-04-24T11:52:40;14.40;99.90
10390;DHT22;5241;47.830;12.972;2023-04-24T11:57:53;14.30;99.90
10390;DHT22;5241;47.830;12.972;2023-04-24T12:00:22;14.30;99.90
10390;DHT22;5241;47.830;12.972;2023-04-24T12:02:48;14.80;99.90
10390;DHT22;5241;47.830;12.972;2023-04-24T12:05:21;14.90;99.90
10390;DHT22;5241;47.830;12.972;2023-04-24T12:07:47;15.00;99.90
10390;DHT22;5241;47.830;12.972;2023-04-24T12:10:12;14.60;99.90
10390;DHT22;5241;47.830;12.972;2023-04-24T12:12:38;14.70;99.90
10390;DHT22;5241;47.830;12.972;2023-04-24T12:15:07;14.70;99.90
10390;DHT22;5241;47.830;12.972;2023-04-24T12:17:34;15.00;99.90
10390;DHT22;5241;47.830;12.972;2023-04-24T12:20:06;15.10;99.90
10390;DHT22;5241;47.830;12.972;2023-04-24T12:22:54;14.70;99.90
10390;DHT22;5241;47.830;12.972;2023-04-24T12:25:24;14.30;99.90
10390;DHT22;5241;47.830;12.972;2023-04-24T12:28:11;14.30;99.90
10390;DHT22;5241;47.830;12.972;2023-04-24T12:30:46;14.30;99.90
10390;DHT22;5241;47.830;12.972;2023-04-24T12:33:20;14.90;99.90
10390;DHT22;5241;47.830;12.972;2023-04-24T12:35:51;14.80;99.90
10390;DHT22;5241;47.830;12.972;2023-04-24T12:38:22;14.70;99.90
10390;DHT22;5241;47.830;12.972;2023-04-24T12:40:48;14.30;99.90
10390;DHT22;5241;47.830;12.972;2023-04-24T12:43:26;14.20;99.90
10390;DHT22;5241;47.830;12.972;2023-04-24T12:45:51;14.10;99.90
10390;DHT22;5241;47.830;12.972;2023-04-24T12:48:17;14.00;99.90
10390;DHT22;5241;47.830;12.972;2023-04-24T12:50:43;13.80;99.90
10390;DHT22;5241;47.830;12.972;2023-04-24T12:53:09;13.20;99.90
10390;DHT22;5241;47.830;12.972;2023-04-24T12:55:36;12.90;99.90
10390;DHT22;5241;47.830;12.972;2023-04-24T12:58:01;12.50;99.90
10390;DHT22;5241;47.830;12.972;2023-04-24T13:00:28;12.10;99.90
10390;DHT22;5241;47.830;12.972;2023-04-24T13:02:54;11.70;99.90
10390;DHT22;5241;47.830;12.972;2023-04-24T13:05:20;11.60;99.90
10390;DHT22;5241;47.830;12.972;2023-04-24T13:07:45;11.60;99.90
10390;DHT22;5241;47.830;12.972;2023-04-24T13:10:11;11.70;99.90
10390;DHT22;5241;47.830;12.972;2023-04-24T13:12:38;11.80;99.90
10390;DHT22;5241;47.830;12.972;2023-04-24T13:15:05;11.90;99.90
10390;DHT22;5241;47.830;12.972;2023-04-24T13:17:30;11.80;99.90
10390;DHT22;5241;47.830;12.972;2023-04-24T13:19:56;11.70;99.90
10390;DHT22;5241;47.830;12.972;2023-04-24T13:22:22;11.70;99.90
10390;DHT22;5241;47.830;12.972;2023-04-24T13:24:47;11.50;99.90
10390;DHT22;5241;47.830;12.972;2023-04-24T13:27:16;11.20;99.90
10390;DHT22;5241;47.830;12.972;2023-04-24T13:29:42;10.90;99.90
10390;DHT22;5241;47.830;12.972;2023-04-24T13:32:08;10.80;99.90
10390;DHT22;5241;47.830;12.972;2023-04-24T13:34:34;10.60;99.90
10390;DHT22;5241;47.830;12.972;2023-04-24T13:37:02;10.50;99.90
10390;DHT22;5241;47.830;12.972;2023-04-24T13:39:29;10.50;99.90
10390;DHT22;5241;47.830;12.972;2023-04-24T13:41:55;10.70;99.90
10390;DHT22;5241;47.830;12.972;2023-04-24T13:44:21;10.90;99.90
10390;DHT22;5241;47.830;12.972;2023-04-24T13:46:49;11.10;99.90
10390;DHT22;5241;47.830;12.972;2023-04-24T13:49:15;11.30;99.90
10390;DHT22;5241;47.830;12.972;2023-04-24T13:51:42;11.60;99.90
10390;DHT22;5241;47.830;12.972;2023-04-24T13:54:08;12.00;99.90
10390;DHT22;5241;47.830;12.972;2023-04-24T13:56:33;12.10;99.90
10390;DHT22;5241;47.830;12.972;2023-04-24T13:58:59;12.30;99.90
10390;DHT22;5241;47.830;12.972;2023-04-24T14:01:25;12.50;99.90
10390;DHT22;5241;47.830;12.972;2023-04-24T14:03:54;12.80;99.90
10390;DHT22;5241;47.830;12.972;2023-04-24T14:06:20;12.90;99.90
10390;DHT22;5241;47.830;12.972;2023-04-24T14:08:47;12.70;99.90
10390;DHT22;5241;47.830;12.972;2023-04-24T14:11:13;12.60;99.90
10390;DHT22;5241;47.830;12.972;2023-04-24T14:13:40;12.50;99.90
10390;DHT22;5241;47.830;12.972;2023-04-24T14:16:06;12.40;99.90
10390;DHT22;5241;47.830;12.972;2023-04-24T14:18:32;12.00;99.90
10390;DHT22;5241;47.830;12.972;2023-04-24T14:20:57;11.50;99.90
10390;DHT22;5241;47.830;12.972;2023-04-24T14:23:23;10.90;99.90
10390;DHT22;5241;47.830;12.972;2023-04-24T14:25:49;10.60;99.90
10390;DHT22;5241;47.830;12.972;2023-04-24T14:28:17;10.50;99.90
10390;DHT22;5241;47.830;12.972;2023-04-24T14:30:43;10.40;99.90
10390;DHT22;5241;47.830;12.972;2023-04-24T14:33:09;10.50;99.90
10390;DHT22;5241;47.830;12.972;2023-04-24T14:35:36;10.60;99.90
10390;DHT22;5241;47.830;12.972;2023-04-24T14:38:01;10.60;99.90
10390;DHT22;5241;47.830;12.972;2023-04-24T14:40:27;10.50;99.90
10390;DHT22;5241;47.830;12.972;2023-04-24T14:42:53;10.40;99.90
10390;DHT22;5241;47.830;12.972;2023-04-24T14:45:18;10.40;99.90
10390;DHT22;5241;47.830;12.972;2023-04-24T14:47:45;10.40;99.90
10390;DHT22;5241;47.830;12.972;2023-04-24T14:50:10;10.40;99.90
10390;DHT22;5241;47.830;12.972;2023-04-24T14:52:38;10.40;99.90
10390;DHT22;5241;47.830;12.972;2023-04-24T14:55:04;10.20;99.90
10390;DHT22;5241;47.830;12.972;2023-04-24T14:57:30;10.30;99.90
10390;DHT22;5241;47.830;12.972;2023-04-24T14:59:55;10.20;99.90
10390;DHT22;5241;47.830;12.972;2023-04-24T15:02:21;10.30;99.90
10390;DHT22;5241;47.830;12.972;2023-04-24T15:04:46;10.30;99.90
10390;DHT22;5241;47.830;12.972;2023-04-24T15:07:12;10.30;99.90
10390;DHT22;5241;47.830;12.972;2023-04-24T15:09:37;10.40;99.90
10390;DHT22;5241;47.830;12.972;2023-04-24T15:12:03;10.50;99.90
10390;DHT22;5241;47.830;12.972;2023-04-24T15:14:29;10.50;99.90
10390;DHT22;5241;47.830;12.972;2023-04-24T15:16:55;10.60;99.90
10390;DHT22;5241;47.830;12.972;2023-04-24T15:19:20;10.60;99.90
10390;DHT22;5241;47.830;12.972;2023-04-24T15:21:46;10.70;99.90
10390;DHT22;5241;47.830;12.972;2023-04-24T15:24:11;10.80;99.90
10390;DHT22;5241;47.830;12.972;2023-04-24T15:26:37;10.90;99.90
10390;DHT22;5241;47.830;12.972;2023-04-24T15:29:02;11.00;99.90
10390;DHT22;5241;47.830;12.972;2023-04-24T15:31:28;11.20;99.90
10390;DHT22;5241;47.830;12.972;2023-04-24T15:33:53;11.40;99.90
10390;DHT22;5241;47.830;12.972;2023-04-24T15:36:19;11.50;99.90
10390;DHT22;5241;47.830;12.972;2023-04-24T15:38:46;11.40;99.90
10390;DHT22;5241;47.830;12.972;2023-04-24T15:41:12;11.50;99.90